Time;durP1;ratioP1;P1;durP2;ratioP2;P2;SDS_P1;SDS_P2;PMS_P1;PMS_P2;Temp;Humidity;BMP_temperature;BMP_pressure;BME280_temperature;BME280_humidity;BME280_pressure;Samples;Min_cycle;Max_cycle;Signal;HPM_P1;HPM_P2
2021/12/18 00:00:59;;;;;;;38.30;19.33;;;7.50;99.90;;;;;;5094301;28;20380;-68
2021/12/18 00:03:25;;;;;;;37.88;18.45;;;7.50;99.90;;;;;;5094129;28;20427;-68
2021/12/18 00:05:51;;;;;;;41.50;19.60;;;7.50;99.90;;;;;;5094177;28;20024;-68
2021/12/18 00:08:16;;;;;;;40.83;19.98;;;7.50;99.90;;;;;;5077463;28;20035;-68
2021/12/18 00:10:44;;;;;;;42.92;20.08;;;7.50;99.90;;;;;;5093828;28;20052;-68
2021/12/18 00:13:10;;;;;;;40.70;20.80;;;7.50;99.90;;;;;;5093815;28;20081;-68
2021/12/18 00:15:35;;;;;;;43.15;20.33;;;7.50;99.90;;;;;;5093951;28;20016;-69
2021/12/18 00:18:01;;;;;;;38.22;20.98;;;7.50;99.90;;;;;;5094247;28;20020;-69
2021/12/18 00:20:27;;;;;;;43.25;20.42;;;7.50;99.90;;;;;;5094536;28;20031;-68
2021/12/18 00:22:53;;;;;;;47.33;21.25;;;7.50;99.90;;;;;;5094988;28;20373;-68
2021/12/18 00:25:19;;;;;;;42.30;21.33;;;7.50;99.90;;;;;;5077100;28;20486;-68
2021/12/18 00:27:45;;;;;;;49.50;23.10;;;7.40;99.90;;;;;;5094239;28;20173;-68
2021/12/18 00:30:11;;;;;;;49.00;23.58;;;7.40;99.90;;;;;;5094908;28;20031;-68
2021/12/18 00:32:36;;;;;;;56.53;24.42;;;7.30;99.90;;;;;;5095123;28;20032;-68
2021/12/18 00:35:03;;;;;;;55.40;24.60;;;7.30;99.90;;;;;;5094738;28;20111;-68
2021/12/18 00:37:28;;;;;;;58.53;22.67;;;7.30;99.90;;;;;;5093918;28;20027;-68
2021/12/18 00:39:57;;;;;;;57.20;25.33;;;7.40;99.90;;;;;;5076348;28;20418;-68
2021/12/18 00:42:38;;;;;;;62.00;25.23;;;7.30;99.90;;;;;;5093564;28;20020;-67
2021/12/18 00:45:06;;;;;;;60.22;25.27;;;7.30;99.90;;;;;;5093645;28;20031;-68
2021/12/18 00:47:32;;;;;;;60.42;25.92;;;7.30;99.90;;;;;;5093126;28;20495;-68
2021/12/18 00:49:57;;;;;;;63.58;26.30;;;7.30;99.90;;;;;;5093822;28;20024;-68
2021/12/18 00:52:23;;;;;;;62.92;27.58;;;7.30;99.90;;;;;;5094771;28;20099;-68
2021/12/18 00:54:49;;;;;;;69.10;27.45;;;7.30;99.90;;;;;;5076449;28;20030;-68
2021/12/18 00:57:15;;;;;;;68.50;29.02;;;7.30;99.90;;;;;;5094685;28;20518;-67
2021/12/18 00:59:40;;;;;;;71.78;30.40;;;7.30;99.90;;;;;;5092886;28;20016;-67
2021/12/18 01:02:06;;;;;;;74.53;29.27;;;7.30;99.90;;;;;;5076811;28;20027;-67
2021/12/18 01:04:32;;;;;;;69.07;28.50;;;7.30;99.90;;;;;;5092769;28;20020;-68
2021/12/18 01:06:57;;;;;;;70.40;28.48;;;7.30;99.90;;;;;;5094546;28;20065;-68
2021/12/18 01:09:36;;;;;;;70.45;28.83;;;7.30;99.90;;;;;;5075857;28;20026;-67
2021/12/18 01:12:04;;;;;;;76.53;29.75;;;7.30;99.90;;;;;;5077747;28;20036;-67
2021/12/18 01:14:47;;;;;;;79.00;31.10;;;7.30;99.90;;;;;;5094470;28;20381;-67
2021/12/18 01:22:47;;;;;;;87.88;33.95;;;7.30;99.90;;;;;;5093630;28;20031;-67
2021/12/18 01:25:12;;;;;;;78.35;31.05;;;7.30;99.90;;;;;;5093648;28;20447;-66
2021/12/18 01:27:38;;;;;;;83.32;33.15;;;7.30;99.90;;;;;;5093014;28;20081;-67
2021/12/18 01:30:06;;;;;;;90.90;32.00;;;7.30;99.90;;;;;;5094207;28;20067;-65
2021/12/18 01:32:32;;;;;;;83.65;31.95;;;7.30;99.90;;;;;;5094066;28;20020;-67
2021/12/18 01:34:57;;;;;;;80.93;32.50;;;7.30;99.90;;;;;;5092357;28;20190;-67
2021/12/18 01:37:23;;;;;;;86.38;32.25;;;7.30;99.90;;;;;;5075942;28;20081;-67
2021/12/18 01:39:52;;;;;;;73.57;30.13;;;7.30;99.90;;;;;;5092326;28;20020;-67
2021/12/18 01:45:47;;;;;;;79.03;29.58;;;7.30;99.90;;;;;;5093381;28;20028;-67
2021/12/18 01:53:21;;;;;;;78.32;29.83;;;7.30;99.90;;;;;;5092250;28;20020;-67
2021/12/18 01:55:49;;;;;;;83.03;30.90;;;7.30;99.90;;;;;;5092095;28;20027;-67
2021/12/18 01:58:20;;;;;;;70.30;28.27;;;7.30;99.90;;;;;;5093385;28;20020;-67
2021/12/18 02:00:46;;;;;;;77.88;28.52;;;7.30;99.90;;;;;;5093958;28;20047;-67
2021/12/18 02:03:11;;;;;;;70.53;27.27;;;7.30;99.90;;;;;;5093935;28;20504;-67
2021/12/18 02:05:38;;;;;;;78.13;30.23;;;7.30;99.90;;;;;;5093354;28;20388;-67
2021/12/18 02:08:05;;;;;;;81.30;29.23;;;7.30;99.90;;;;;;5093577;28;20064;-67
2021/12/18 02:10:41;;;;;;;79.80;27.65;;;7.30;99.90;;;;;;5093295;28;20024;-67
2021/12/18 02:13:22;;;;;;;71.82;27.20;;;7.30;99.90;;;;;;5077250;28;20392;-67
2021/12/18 02:21:23;;;;;;;76.50;27.95;;;7.30;99.90;;;;;;5077985;28;20020;-67
2021/12/18 02:23:49;;;;;;;77.38;28.15;;;7.30;99.90;;;;;;5091892;28;20503;-67
2021/12/18 02:26:15;;;;;;;80.63;29.00;;;7.30;99.90;;;;;;5093417;28;20381;-67
2021/12/18 02:28:46;;;;;;;89.63;30.08;;;7.30;99.90;;;;;;5093680;28;20021;-67
2021/12/18 02:31:12;;;;;;;88.45;31.15;;;7.30;99.90;;;;;;5076147;28;20020;-68
2021/12/18 02:33:37;;;;;;;95.63;32.80;;;7.30;99.90;;;;;;5075147;28;20141;-67
2021/12/18 02:36:06;;;;;;;93.95;30.17;;;7.30;99.90;;;;;;5091578;28;20073;-67
2021/12/18 02:41:28;;;;;;;91.50;31.42;;;7.30;99.90;;;;;;5093266;28;20027;-67
2021/12/18 02:43:58;;;;;;;97.55;33.42;;;7.30;99.90;;;;;;5095999;28;20032;-67
2021/12/18 02:46:23;;;;;;;91.95;33.35;;;7.30;99.90;;;;;;5096259;28;20058;-67
2021/12/18 02:48:51;;;;;;;99.18;33.97;;;7.30;99.90;;;;;;5096903;28;20032;-67
2021/12/18 02:51:17;;;;;;;109.05;34.20;;;7.30;99.90;;;;;;5095674;28;20036;-67
2021/12/18 02:53:46;;;;;;;99.85;33.35;;;7.30;99.90;;;;;;5096790;28;20388;-67
2021/12/18 02:56:12;;;;;;;97.22;32.85;;;7.30;99.90;;;;;;5095498;28;20020;-67
2021/12/18 02:58:40;;;;;;;116.78;34.70;;;7.30;99.90;;;;;;5078404;28;20452;-67
2021/12/18 03:01:09;;;;;;;108.78;34.63;;;7.30;99.90;;;;;;5096646;28;20418;-67
2021/12/18 03:03:37;;;;;;;104.55;34.75;;;7.30;99.90;;;;;;5096599;28;20453;-67
2021/12/18 03:06:19;;;;;;;108.07;33.88;;;7.30;99.90;;;;;;5079005;28;20388;-67
2021/12/18 03:23:49;;;;;;;106.40;34.40;;;7.30;99.90;;;;;;5095803;28;20031;-67
2021/12/18 03:25:31;;;;;;;126.93;37.58;;;7.30;99.90;;;;;;5095741;28;20024;-67
2021/12/18 03:27:59;;;;;;;123.75;38.10;;;7.30;99.90;;;;;;5096145;28;20168;-67
2021/12/18 03:30:26;;;;;;;125.90;36.67;;;7.30;99.90;;;;;;5095788;28;20016;-67
2021/12/18 03:32:51;;;;;;;123.65;37.65;;;7.20;99.90;;;;;;5095760;28;20055;-67
2021/12/18 03:35:17;;;;;;;110.43;35.92;;;7.30;99.90;;;;;;5094898;28;20144;-67
2021/12/18 03:37:44;;;;;;;123.70;36.80;;;7.30;99.90;;;;;;5095081;28;20024;-67
2021/12/18 03:40:14;;;;;;;141.32;37.42;;;7.30;99.90;;;;;;5096173;28;20016;-67
2021/12/18 03:42:40;;;;;;;116.72;38.08;;;7.30;99.90;;;;;;5096133;28;20043;-67
2021/12/18 03:45:08;;;;;;;128.10;37.70;;;7.30;99.90;;;;;;5096060;28;20025;-67
2021/12/18 03:47:33;;;;;;;116.70;36.03;;;7.30;99.90;;;;;;5096029;28;20020;-67
2021/12/18 03:49:59;;;;;;;114.32;34.35;;;7.30;99.90;;;;;;5095012;28;20024;-67
2021/12/18 03:52:25;;;;;;;125.13;36.90;;;7.30;99.90;;;;;;5094109;28;20047;-67
2021/12/18 03:54:50;;;;;;;118.75;35.22;;;7.30;99.90;;;;;;5095883;28;20016;-67
2021/12/18 03:57:16;;;;;;;130.43;36.22;;;7.30;99.90;;;;;;5077621;28;20028;-67
2021/12/18 03:59:42;;;;;;;137.65;37.25;;;7.30;99.90;;;;;;5095497;28;20029;-67
2021/12/18 04:02:07;;;;;;;110.40;35.72;;;7.30;99.90;;;;;;5095180;28;20031;-67
2021/12/18 04:04:33;;;;;;;130.27;37.38;;;7.30;99.90;;;;;;5094549;28;20196;-67
2021/12/18 04:06:59;;;;;;;129.75;38.78;;;7.30;99.90;;;;;;5095113;28;20385;-67
2021/12/18 04:09:28;;;;;;;122.72;37.83;;;7.30;99.90;;;;;;5095043;28;20144;-67
2021/12/18 04:11:54;;;;;;;125.50;39.25;;;7.30;99.90;;;;;;5095270;28;20072;-67
2021/12/18 04:14:19;;;;;;;126.38;38.58;;;7.30;99.90;;;;;;5095516;28;20440;-67
2021/12/18 04:16:45;;;;;;;132.27;37.72;;;7.30;99.90;;;;;;5095401;28;20564;-67
2021/12/18 04:19:10;;;;;;;123.93;38.25;;;7.30;99.90;;;;;;5095418;28;20048;-67
2021/12/18 04:21:37;;;;;;;123.80;39.25;;;7.30;99.90;;;;;;5094211;28;20465;-67
2021/12/18 04:24:03;;;;;;;132.60;39.22;;;7.30;99.90;;;;;;5077054;28;20065;-67
2021/12/18 04:26:31;;;;;;;119.70;38.40;;;7.30;99.90;;;;;;5094753;28;20020;-67
2021/12/18 04:28:57;;;;;;;116.82;36.83;;;7.30;99.90;;;;;;5095246;28;20020;-67
2021/12/18 04:31:23;;;;;;;129.63;38.75;;;7.30;99.90;;;;;;5093377;28;20024;-67
2021/12/18 04:33:48;;;;;;;129.48;38.40;;;7.30;99.90;;;;;;5094596;28;20030;-67
2021/12/18 04:36:14;;;;;;;125.03;36.63;;;7.30;99.90;;;;;;5094537;28;20131;-67
2021/12/18 04:38:40;;;;;;;135.40;39.90;;;7.30;99.90;;;;;;5093624;28;20424;-67
2021/12/18 04:41:06;;;;;;;141.82;41.47;;;7.30;99.90;;;;;;5093195;28;20028;-67
2021/12/18 04:43:32;;;;;;;126.30;39.58;;;7.30;99.90;;;;;;5094724;28;20065;-67
2021/12/18 04:45:57;;;;;;;129.68;39.08;;;7.30;99.90;;;;;;5059571;28;20024;-67
2021/12/18 04:48:23;;;;;;;140.85;41.78;;;7.30;99.90;;;;;;5094621;28;20039;-67
2021/12/18 04:50:49;;;;;;;128.93;40.05;;;7.30;99.90;;;;;;5094308;28;20472;-67
2021/12/18 04:53:14;;;;;;;118.18;39.20;;;7.30;99.90;;;;;;5076074;28;20028;-67
2021/12/18 04:55:40;;;;;;;149.52;41.20;;;7.30;99.90;;;;;;5094697;28;20154;-67
2021/12/18 04:58:05;;;;;;;132.13;39.88;;;7.30;99.90;;;;;;5092904;28;20020;-67
2021/12/18 05:00:38;;;;;;;139.60;40.38;;;7.30;99.90;;;;;;5076013;28;20028;-67
2021/12/18 05:03:07;;;;;;;148.95;40.60;;;7.30;99.90;;;;;;5092837;28;20028;-68
2021/12/18 05:05:34;;;;;;;142.80;39.78;;;7.30;99.90;;;;;;5093074;28;20111;-67
2021/12/18 05:08:01;;;;;;;146.13;39.53;;;7.30;99.90;;;;;;5092729;28;20483;-67
2021/12/18 05:10:27;;;;;;;141.23;39.45;;;7.30;99.90;;;;;;5075975;28;20032;-67
2021/12/18 05:12:53;;;;;;;135.48;38.42;;;7.30;99.90;;;;;;5076325;28;20054;-67
2021/12/18 05:15:18;;;;;;;134.43;39.95;;;7.20;99.90;;;;;;5093213;28;20457;-67
2021/12/18 05:17:44;;;;;;;131.38;38.08;;;7.30;99.90;;;;;;5092705;28;20024;-67
2021/12/18 05:20:10;;;;;;;141.60;38.80;;;7.30;99.90;;;;;;5094376;28;20024;-67
2021/12/18 05:22:36;;;;;;;121.15;37.03;;;7.30;99.90;;;;;;5059119;28;20381;-67
2021/12/18 05:25:03;;;;;;;123.32;37.03;;;7.30;99.90;;;;;;5093189;28;20024;-67
2021/12/18 05:27:29;;;;;;;119.65;38.15;;;7.30;99.90;;;;;;5075835;28;20080;-67
2021/12/18 05:29:54;;;;;;;129.05;37.95;;;7.30;99.90;;;;;;5093080;28;20023;-67
2021/12/18 05:32:20;;;;;;;121.82;36.70;;;7.30;99.90;;;;;;5075603;28;20479;-67
2021/12/18 05:34:45;;;;;;;117.13;36.10;;;7.30;99.90;;;;;;5092763;28;20031;-67
2021/12/18 05:37:30;;;;;;;121.72;37.60;;;7.30;99.90;;;;;;5075457;28;20509;-67
2021/12/18 05:39:55;;;;;;;122.45;36.60;;;7.30;99.90;;;;;;5094100;28;20027;-67
2021/12/18 05:42:21;;;;;;;127.55;38.95;;;7.30;99.90;;;;;;5093878;28;20094;-67
2021/12/18 05:44:46;;;;;;;121.30;37.58;;;7.30;99.90;;;;;;5094114;28;20027;-67
2021/12/18 05:47:12;;;;;;;116.38;36.35;;;7.30;99.90;;;;;;5092930;28;20365;-68
2021/12/18 05:49:38;;;;;;;128.50;38.17;;;7.30;99.90;;;;;;5094032;28;20081;-67
2021/12/18 05:52:05;;;;;;;117.38;35.88;;;7.30;99.90;;;;;;5092569;28;20423;-67
2021/12/18 05:54:35;;;;;;;127.57;36.83;;;7.30;99.90;;;;;;5092212;28;20020;-67
2021/12/18 05:57:04;;;;;;;137.70;37.22;;;7.30;99.90;;;;;;5093607;28;20438;-67
2021/12/18 05:59:29;;;;;;;120.45;36.13;;;7.30;99.90;;;;;;5093954;28;20027;-67
2021/12/18 06:01:55;;;;;;;141.80;38.63;;;7.30;99.90;;;;;;5093404;28;20024;-67
2021/12/18 06:04:21;;;;;;;145.98;37.75;;;7.30;99.90;;;;;;5092674;28;20377;-67
2021/12/18 06:06:46;;;;;;;120.93;37.53;;;7.30;99.90;;;;;;5092422;28;20423;-67
2021/12/18 06:09:12;;;;;;;134.63;35.80;;;7.30;99.90;;;;;;5092920;28;20024;-67
2021/12/18 06:11:39;;;;;;;123.47;35.08;;;7.30;99.90;;;;;;5093851;28;20028;-67
2021/12/18 06:14:05;;;;;;;133.73;37.30;;;7.30;99.90;;;;;;5093550;28;20020;-67
2021/12/18 06:16:31;;;;;;;129.30;37.17;;;7.30;99.90;;;;;;5091991;28;20153;-67
2021/12/18 06:18:56;;;;;;;182.80;39.78;;;7.30;99.90;;;;;;5095912;28;20017;-67
2021/12/18 06:21:22;;;;;;;141.13;35.72;;;7.30;99.90;;;;;;5079436;28;20024;-67
2021/12/18 06:23:51;;;;;;;137.73;38.17;;;7.30;99.90;;;;;;5096527;28;20103;-66
2021/12/18 06:26:19;;;;;;;126.28;35.45;;;7.30;99.90;;;;;;5096106;28;20020;-67
2021/12/18 06:28:44;;;;;;;135.07;35.13;;;7.30;99.90;;;;;;5097560;28;20485;-67
2021/12/18 06:31:10;;;;;;;143.52;35.35;;;7.30;99.90;;;;;;5097526;28;20039;-67
2021/12/18 06:33:35;;;;;;;141.68;35.15;;;7.30;99.90;;;;;;5078699;28;20024;-67
2021/12/18 06:36:01;;;;;;;144.95;36.58;;;7.30;99.90;;;;;;5078926;28;20046;-67
2021/12/18 06:38:27;;;;;;;139.38;36.55;;;7.30;99.90;;;;;;5097366;28;20048;-67
2021/12/18 06:40:52;;;;;;;136.38;33.88;;;7.30;99.90;;;;;;5096152;28;20420;-67
2021/12/18 06:43:18;;;;;;;143.38;34.10;;;7.30;99.90;;;;;;5061935;28;20438;-67
2021/12/18 06:45:44;;;;;;;137.88;33.53;;;7.30;99.90;;;;;;5097248;28;20028;-67
2021/12/18 06:48:10;;;;;;;144.68;33.72;;;7.30;99.90;;;;;;5096143;28;20024;-67
2021/12/18 06:50:36;;;;;;;141.07;34.40;;;7.30;99.90;;;;;;5095889;28;20035;-67
2021/12/18 06:53:03;;;;;;;136.88;32.17;;;7.40;99.90;;;;;;5095918;28;20083;-67
2021/12/18 06:55:28;;;;;;;116.35;29.95;;;7.30;99.90;;;;;;5095796;28;20468;-67
2021/12/18 06:57:54;;;;;;;113.30;30.20;;;7.30;99.90;;;;;;5096965;28;20028;-67
2021/12/18 07:00:20;;;;;;;112.68;30.52;;;7.30;99.90;;;;;;5096934;28;20027;-67
2021/12/18 07:02:46;;;;;;;102.35;28.33;;;7.30;99.90;;;;;;5078175;28;20016;-67
2021/12/18 07:05:12;;;;;;;103.40;29.30;;;7.40;99.90;;;;;;5095053;28;20381;-67
2021/12/18 07:07:38;;;;;;;109.05;27.05;;;7.40;99.90;;;;;;5096820;28;20016;-67
2021/12/18 07:10:05;;;;;;;83.95;25.95;;;7.40;99.90;;;;;;5095757;28;20031;-67
2021/12/18 07:12:31;;;;;;;80.05;21.90;;;7.30;99.90;;;;;;5095208;28;20027;-67
2021/12/18 07:14:57;;;;;;;63.70;18.80;;;7.30;99.90;;;;;;5078025;28;20020;-67
2021/12/18 07:17:22;;;;;;;59.47;18.80;;;7.30;99.90;;;;;;5094779;28;20035;-67
2021/12/18 07:19:48;;;;;;;60.15;18.02;;;7.30;99.90;;;;;;5096044;28;20024;-67
2021/12/18 07:22:13;;;;;;;59.28;16.63;;;7.30;99.90;;;;;;5094776;28;20024;-67
2021/12/18 07:24:39;;;;;;;59.10;16.83;;;7.30;99.90;;;;;;5094695;28;20054;-68
2021/12/18 07:27:05;;;;;;;52.38;16.33;;;7.30;99.90;;;;;;5061144;28;20055;-67
2021/12/18 07:29:30;;;;;;;55.95;15.60;;;7.30;99.90;;;;;;5095970;28;20479;-67
2021/12/18 07:31:56;;;;;;;46.70;14.93;;;7.30;99.90;;;;;;5077532;28;20028;-67
2021/12/18 07:34:21;;;;;;;43.67;14.40;;;7.30;99.90;;;;;;5094840;28;20024;-66
2021/12/18 07:36:47;;;;;;;41.47;14.02;;;7.30;99.90;;;;;;5095493;28;20501;-67
2021/12/18 07:39:12;;;;;;;39.03;13.52;;;7.30;99.90;;;;;;5095043;28;20020;-68
2021/12/18 07:41:39;;;;;;;42.88;12.77;;;7.30;99.90;;;;;;5077422;28;20032;-67
2021/12/18 07:44:06;;;;;;;39.63;12.63;;;7.30;99.90;;;;;;5094324;28;20028;-67
2021/12/18 07:46:33;;;;;;;39.22;11.32;;;7.30;99.90;;;;;;5095529;28;20028;-67
2021/12/18 07:48:58;;;;;;;38.42;11.07;;;7.30;99.90;;;;;;5095749;28;20035;-68
2021/12/18 07:51:24;;;;;;;29.35;9.00;;;7.30;99.90;;;;;;5094219;28;20412;-68
2021/12/18 07:53:49;;;;;;;24.42;9.27;;;7.20;99.90;;;;;;5094069;28;20028;-67
2021/12/18 07:56:15;;;;;;;26.45;9.18;;;7.20;99.90;;;;;;5095513;28;20111;-67
2021/12/18 07:58:40;;;;;;;30.33;9.05;;;7.20;99.90;;;;;;5094339;28;20485;-68
2021/12/18 08:01:06;;;;;;;27.20;9.57;;;7.20;99.90;;;;;;5095180;28;20027;-67
2021/12/18 08:03:31;;;;;;;20.30;8.25;;;7.20;99.90;;;;;;5094305;28;20381;-67
2021/12/18 08:05:57;;;;;;;24.88;8.07;;;7.20;99.90;;;;;;5093859;28;20031;-68
2021/12/18 08:08:23;;;;;;;23.95;8.07;;;7.30;99.90;;;;;;5094153;28;20051;-67
2021/12/18 08:10:49;;;;;;;20.90;7.20;;;7.30;99.90;;;;;;5060411;28;20024;-66
2021/12/18 08:13:14;;;;;;;20.55;7.85;;;7.30;99.90;;;;;;5095516;28;20587;-68
2021/12/18 08:15:40;;;;;;;21.60;7.32;;;7.30;99.90;;;;;;5094432;28;20024;-67
2021/12/18 08:18:07;;;;;;;19.17;7.28;;;7.30;99.90;;;;;;5095468;28;20043;-68
2021/12/18 08:20:35;;;;;;;25.95;8.80;;;7.20;99.90;;;;;;5077014;28;20107;-67
2021/12/18 08:23:01;;;;;;;23.08;7.50;;;7.20;99.90;;;;;;5094802;28;20024;-68
2021/12/18 08:25:28;;;;;;;24.00;7.75;;;7.20;99.90;;;;;;5093915;28;20027;-68
2021/12/18 08:27:55;;;;;;;25.27;7.95;;;7.20;99.90;;;;;;5093831;28;20027;-68
2021/12/18 08:30:22;;;;;;;22.33;7.65;;;7.20;99.90;;;;;;5094956;28;20012;-68
2021/12/18 08:32:48;;;;;;;23.10;6.85;;;7.20;99.90;;;;;;5095177;28;20024;-68
2021/12/18 08:35:14;;;;;;;24.98;7.45;;;7.20;99.90;;;;;;5094344;28;20092;-67
2021/12/18 08:37:40;;;;;;;17.48;6.80;;;7.20;99.90;;;;;;5094554;28;20372;-67
2021/12/18 08:40:07;;;;;;;19.40;6.80;;;7.30;99.90;;;;;;5093454;28;20099;-67
2021/12/18 08:42:32;;;;;;;19.90;6.70;;;7.30;99.90;;;;;;5093692;28;20043;-67
2021/12/18 08:44:58;;;;;;;18.20;6.57;;;7.30;99.90;;;;;;5076615;28;20473;-67
2021/12/18 08:47:23;;;;;;;19.05;6.55;;;7.30;99.90;;;;;;5093686;28;20028;-67
2021/12/18 08:49:49;;;;;;;16.40;6.80;;;7.30;99.90;;;;;;5093417;28;20024;-67
2021/12/18 08:52:14;;;;;;;23.95;7.22;;;7.30;99.90;;;;;;5076642;28;20046;-67
2021/12/18 08:54:40;;;;;;;18.83;7.15;;;7.40;99.90;;;;;;5093616;28;20024;-67
2021/12/18 08:57:05;;;;;;;22.52;7.53;;;7.40;99.90;;;;;;5092853;28;20035;-67
2021/12/18 08:59:31;;;;;;;20.13;6.53;;;7.30;99.90;;;;;;5093096;28;20023;-68
2021/12/18 09:01:56;;;;;;;19.60;6.75;;;7.30;99.90;;;;;;5076522;28;20020;-67
2021/12/18 09:04:22;;;;;;;19.25;6.63;;;7.30;99.90;;;;;;5094068;28;20028;-67
2021/12/18 09:06:47;;;;;;;16.25;6.55;;;7.30;99.90;;;;;;5094591;28;20484;-67
2021/12/18 09:09:13;;;;;;;16.95;6.47;;;7.30;99.90;;;;;;5094568;28;20412;-67
2021/12/18 09:11:39;;;;;;;16.92;6.15;;;7.20;99.90;;;;;;5076225;28;20036;-67
2021/12/18 09:14:04;;;;;;;13.77;6.20;;;7.20;99.90;;;;;;5093021;28;20078;-67
2021/12/18 09:16:32;;;;;;;12.02;4.93;;;7.30;99.90;;;;;;5093084;28;20024;-68
2021/12/18 09:18:57;;;;;;;12.13;5.35;;;7.30;99.90;;;;;;5094061;28;20031;-68
2021/12/18 09:21:23;;;;;;;12.02;5.50;;;7.20;99.90;;;;;;5094099;28;20017;-68
2021/12/18 09:23:49;;;;;;;15.48;5.95;;;7.20;99.90;;;;;;5093281;28;20077;-67
2021/12/18 09:26:14;;;;;;;12.65;4.97;;;7.30;99.90;;;;;;5094006;28;20081;-67
2021/12/18 09:28:40;;;;;;;13.27;5.07;;;7.20;99.90;;;;;;5094263;28;20350;-67
2021/12/18 09:31:05;;;;;;;14.85;4.93;;;7.20;99.90;;;;;;5092432;28;20432;-67
2021/12/18 09:33:31;;;;;;;11.40;4.68;;;7.20;99.90;;;;;;5092793;28;20032;-67
2021/12/18 09:35:57;;;;;;;13.23;5.00;;;7.20;99.90;;;;;;5093575;28;20047;-68
2021/12/18 09:38:22;;;;;;;12.43;4.20;;;7.20;99.90;;;;;;5092720;28;20030;-67
2021/12/18 09:40:48;;;;;;;12.52;4.70;;;7.20;99.90;;;;;;5092307;28;20111;-67
2021/12/18 09:43:14;;;;;;;10.43;4.00;;;7.20;99.90;;;;;;5075496;28;20036;-68
2021/12/18 09:45:40;;;;;;;9.55;4.18;;;7.20;99.90;;;;;;5092955;28;20032;-67
2021/12/18 09:48:06;;;;;;;10.45;4.30;;;7.30;99.90;;;;;;5094005;28;20407;-67
2021/12/18 09:50:34;;;;;;;8.98;3.47;;;7.30;99.90;;;;;;5092619;28;20024;-67
2021/12/18 09:53:00;;;;;;;8.90;3.40;;;7.30;99.90;;;;;;5096944;28;20020;-67
2021/12/18 09:55:25;;;;;;;9.10;3.63;;;7.30;99.90;;;;;;5097746;28;20108;-67
2021/12/18 09:57:51;;;;;;;7.15;3.20;;;7.50;99.90;;;;;;5098092;28;20472;-68
2021/12/18 10:00:22;;;;;;;6.43;3.15;;;7.50;99.90;;;;;;5098009;28;20372;-68
2021/12/18 10:02:47;;;;;;;6.57;3.13;;;7.60;99.90;;;;;;5097584;28;20062;-67
2021/12/18 10:05:31;;;;;;;8.07;3.83;;;7.60;99.90;;;;;;5096122;28;20465;-67
2021/12/18 10:08:12;;;;;;;10.27;4.63;;;7.60;99.90;;;;;;5096552;28;20024;-67
2021/12/18 10:10:56;;;;;;;8.73;3.17;;;7.60;99.90;;;;;;5080119;28;20055;-68
2021/12/18 10:13:21;;;;;;;4.25;2.05;;;7.60;99.90;;;;;;5079174;28;20024;-67
2021/12/18 10:16:06;;;;;;;4.40;1.92;;;7.50;99.90;;;;;;5097502;28;20031;-68
2021/12/18 10:18:41;;;;;;;3.97;2.00;;;7.50;99.90;;;;;;5095983;28;20020;-68
2021/12/18 10:21:10;;;;;;;4.22;2.25;;;7.50;99.90;;;;;;5097152;28;20020;-68
2021/12/18 10:23:36;;;;;;;5.82;2.30;;;7.60;99.90;;;;;;5097129;28;20020;-68
2021/12/18 10:26:02;;;;;;;4.93;2.45;;;7.60;99.90;;;;;;5079071;28;20080;-68
2021/12/18 10:28:43;;;;;;;5.40;2.28;;;7.50;99.90;;;;;;5078907;28;20020;-67
2021/12/18 10:31:09;;;;;;;4.03;2.13;;;7.60;99.90;;;;;;5097505;28;20047;-68
2021/12/18 10:33:35;;;;;;;4.55;1.92;;;7.60;99.90;;;;;;5095686;28;20380;-68
2021/12/18 10:36:02;;;;;;;4.63;1.98;;;7.50;99.90;;;;;;5096797;28;20078;-68
2021/12/18 10:38:54;;;;;;;3.78;2.10;;;7.50;99.90;;;;;;5097346;28;20524;-67
2021/12/18 10:41:32;;;;;;;4.93;2.40;;;7.50;99.90;;;;;;5097377;28;20024;-68
2021/12/18 10:44:13;;;;;;;4.30;2.30;;;7.50;99.90;;;;;;5096119;28;20027;-68
2021/12/18 10:46:42;;;;;;;3.85;2.17;;;7.40;99.90;;;;;;5095638;28;20089;-68
2021/12/18 10:49:11;;;;;;;5.10;2.78;;;7.40;99.90;;;;;;5097244;28;20035;-68
2021/12/18 10:51:38;;;;;;;5.75;3.05;;;7.40;99.90;;;;;;5095337;28;20511;-68
2021/12/18 10:54:06;;;;;;;6.95;3.47;;;7.30;99.90;;;;;;5097124;28;20480;-67
2021/12/18 10:56:36;;;;;;;7.07;3.75;;;7.30;99.90;;;;;;5096831;28;20150;-68
2021/12/18 10:59:02;;;;;;;8.93;4.30;;;7.30;99.90;;;;;;5096987;28;20044;-68
2021/12/18 11:01:29;;;;;;;8.35;3.83;;;7.30;99.90;;;;;;5095572;28;20448;-68
2021/12/18 11:03:55;;;;;;;5.63;3.22;;;7.30;99.90;;;;;;5094336;28;20028;-68
2021/12/18 11:06:25;;;;;;;7.07;3.42;;;7.20;99.90;;;;;;5095126;28;20030;-68
2021/12/18 11:09:06;;;;;;;10.63;3.90;;;7.30;99.90;;;;;;5095173;28;20085;-68
2021/12/18 11:14:15;;;;;;;8.88;4.82;;;7.40;99.90;;;;;;5096424;28;20461;-68
2021/12/18 11:16:45;;;;;;;8.65;4.70;;;7.30;99.90;;;;;;5078651;28;20032;-68
2021/12/18 11:19:14;;;;;;;8.73;4.32;;;7.30;99.90;;;;;;5094780;28;20025;-68
2021/12/18 11:21:47;;;;;;;8.07;4.50;;;7.30;99.90;;;;;;5096319;28;20023;-68
2021/12/18 11:24:13;;;;;;;8.43;4.80;;;7.20;99.90;;;;;;5096504;28;20024;-67
2021/12/18 11:27:00;;;;;;;10.20;5.30;;;7.20;99.90;;;;;;5095456;28;20365;-67
2021/12/18 11:29:35;;;;;;;9.85;4.68;;;7.20;99.90;;;;;;5080402;28;20025;-68
2021/12/18 11:32:01;;;;;;;8.82;4.88;;;7.10;99.90;;;;;;5095044;28;20358;-68
2021/12/18 11:34:28;;;;;;;10.18;4.57;;;7.30;99.90;;;;;;5096359;28;20103;-67
2021/12/18 11:36:54;;;;;;;8.70;4.97;;;7.30;99.90;;;;;;5094296;28;20048;-68
2021/12/18 11:39:23;;;;;;;9.80;5.03;;;7.40;99.90;;;;;;5096193;28;20514;-68
2021/12/18 11:41:51;;;;;;;9.18;5.10;;;7.40;99.90;;;;;;5095222;28;20457;-67
2021/12/18 11:44:27;;;;;;;7.78;4.88;;;7.40;99.90;;;;;;5077624;28;20035;-68
2021/12/18 11:46:53;;;;;;;7.55;4.65;;;7.40;99.90;;;;;;5095526;28;20543;-68
2021/12/18 11:49:21;;;;;;;9.95;4.78;;;7.40;99.90;;;;;;5095071;28;20028;-68
2021/12/18 11:52:04;;;;;;;8.80;3.97;;;7.30;99.90;;;;;;5077691;28;20114;-67
2021/12/18 11:54:54;;;;;;;6.78;4.18;;;7.30;99.90;;;;;;5077456;28;20073;-68
2021/12/18 11:57:42;;;;;;;8.23;4.35;;;7.30;99.90;;;;;;5078605;28;20060;-68
2021/12/18 12:00:29;;;;;;;7.72;4.00;;;7.20;99.90;;;;;;5094393;28;20016;-68
2021/12/18 12:02:57;;;;;;;6.78;4.07;;;7.30;99.90;;;;;;5093888;28;20477;-68
2021/12/18 12:05:45;;;;;;;6.82;3.80;;;7.30;99.90;;;;;;5077421;28;20024;-68
2021/12/18 12:08:35;;;;;;;6.55;3.83;;;7.20;99.90;;;;;;5093899;28;20024;-67
2021/12/18 12:11:21;;;;;;;6.85;4.07;;;7.20;99.90;;;;;;5095573;28;20381;-68
2021/12/18 12:16:58;;;;;;;9.07;4.47;;;7.20;99.90;;;;;;5112197;27;20376;-68
2021/12/18 12:19:45;;;;;;;9.15;4.95;;;7.20;99.90;;;;;;5111638;28;20032;-68
2021/12/18 12:22:39;;;;;;;11.15;4.93;;;7.20;99.90;;;;;;5110397;28;20098;-68
2021/12/18 12:25:08;;;;;;;6.55;3.72;;;7.10;99.90;;;;;;5110894;28;20046;-68
2021/12/18 12:27:38;;;;;;;6.82;4.05;;;7.10;99.90;;;;;;5111208;28;20042;-67
2021/12/18 12:30:09;;;;;;;9.57;4.25;;;7.10;99.90;;;;;;5110247;28;20024;-68
2021/12/18 12:32:35;;;;;;;6.28;3.30;;;7.10;99.90;;;;;;5111405;28;20024;-67
2021/12/18 12:35:10;;;;;;;5.30;3.47;;;7.10;99.90;;;;;;5110293;28;20032;-68
2021/12/18 12:37:40;;;;;;;8.30;4.43;;;7.00;99.90;;;;;;5109729;28;20020;-67
2021/12/18 12:40:19;;;;;;;6.13;3.45;;;7.00;99.90;;;;;;5111574;28;20016;-67
2021/12/18 12:43:15;;;;;;;6.93;3.75;;;7.10;99.90;;;;;;5110057;28;20401;-68
2021/12/18 12:45:43;;;;;;;5.90;3.20;;;7.10;99.90;;;;;;5109582;28;20024;-68
2021/12/18 12:48:09;;;;;;;8.45;4.50;;;7.10;99.90;;;;;;5109928;28;20099;-67
2021/12/18 12:50:35;;;;;;;8.38;5.00;;;7.00;99.90;;;;;;5109911;28;20104;-67
2021/12/18 12:53:03;;;;;;;9.55;5.15;;;7.00;99.90;;;;;;5109390;28;20119;-67
2021/12/18 12:55:31;;;;;;;8.68;5.15;;;6.90;99.90;;;;;;5110176;28;20020;-67
2021/12/18 12:58:00;;;;;;;12.10;5.82;;;6.90;99.90;;;;;;5109770;28;20107;-67
2021/12/18 13:00:31;;;;;;;11.65;6.10;;;6.80;99.90;;;;;;5111131;28;20024;-68
2021/12/18 13:03:18;;;;;;;9.13;5.93;;;6.70;99.90;;;;;;5110825;28;20016;-67
2021/12/18 13:05:47;;;;;;;13.05;6.22;;;6.70;99.90;;;;;;5110486;28;20060;-67
2021/12/18 13:08:13;;;;;;;12.82;5.43;;;6.70;99.90;;;;;;5109805;28;20136;-67
2021/12/18 13:10:41;;;;;;;11.02;5.88;;;6.60;99.90;;;;;;5109445;28;20052;-67
2021/12/18 13:13:11;;;;;;;11.60;6.00;;;6.60;99.90;;;;;;5109376;28;20024;-67
2021/12/18 13:16:02;;;;;;;10.27;5.47;;;6.60;99.90;;;;;;5109166;28;20044;-67
2021/12/18 13:18:35;;;;;;;8.43;5.10;;;6.60;99.90;;;;;;5110851;28;20024;-67
2021/12/18 13:21:05;;;;;;;8.27;4.43;;;6.60;99.90;;;;;;5109747;28;20369;-67
2021/12/18 13:26:41;;;;;;;7.60;4.60;;;6.50;99.90;;;;;;5112244;27;20359;-67
2021/12/18 13:29:11;;;;;;;7.72;4.22;;;6.50;99.90;;;;;;5111926;28;20473;-67
2021/12/18 13:31:56;;;;;;;9.55;5.10;;;6.60;99.90;;;;;;5110409;28;20529;-68